KGAI/GAI METAR and TAF weather

Enter ICAO airport designator
Station Type Date Time Source
KGAI METAR 2020/07/04 09:56 UTC NOAA

KGAI 040956Z AUTO 00000KT 10SM CLR 21/19 A2992 RMK AO2 SLP140 T02060189


Station Type Date Time Source
KGAI Decoded METAR 2020/07/04 09:56 UTC NOAA

Station name not available
Jul 04, 2020 - 05:56 AM EDT / 2020.07.04 0956 UTC
Wind: Calm:0
Visibility: 10 mile(s):0
Sky conditions: clear
Temperature: 69.1 F (20.6 C)
Dew Point: 66.0 F (18.9 C)
Relative Humidity: 89%
Pressure (altimeter): 29.92 in. Hg (1013 hPa)
ob: KGAI 040956Z AUTO 00000KT 10SM CLR 21/19 A2992 RMK AO2 SLP140 T02060189
cycle: 10

Station Type Date Time Source
KGAI TAF UTC NOAA

Error!

Example: see airport list